sensor_id;sensor_type;location;lat;lon;timestamp;pressure;altitude;pressure_sealevel;temperature;humidity
69402;BME280;56589;51.992;5.924;2023-02-19T00:31:09;101142.25;;;9.23;87.17
69402;BME280;56589;51.992;5.924;2023-02-19T01:09:57;101133.50;;;9.07;88.30
69402;BME280;56589;51.992;5.924;2023-02-19T01:12:25;101142.34;;;9.05;87.81
69402;BME280;56589;51.992;5.924;2023-02-19T01:14:51;101141.69;;;9.01;87.88
69402;BME280;56589;51.992;5.924;2023-02-19T01:17:17;101141.72;;;9.00;87.93
69402;BME280;56589;51.992;5.924;2023-02-19T01:19:43;101148.75;;;8.99;88.15
69402;BME280;56589;51.992;5.924;2023-02-19T01:22:09;101153.94;;;9.01;88.27
69402;BME280;56589;51.992;5.924;2023-02-19T01:24:35;101148.69;;;9.01;88.23
69402;BME280;56589;51.992;5.924;2023-02-19T01:27:03;101155.75;;;8.99;88.13
69402;BME280;56589;51.992;5.924;2023-02-19T01:29:29;101158.38;;;8.99;88.15
69402;BME280;56589;51.992;5.924;2023-02-19T01:31:55;101157.44;;;9.00;88.35
69402;BME280;56589;51.992;5.924;2023-02-19T01:34:21;101167.88;;;9.01;88.51
69402;BME280;56589;51.992;5.924;2023-02-19T01:36:47;101164.47;;;8.99;88.78
69402;BME280;56589;51.992;5.924;2023-02-19T01:39:12;101162.63;;;9.01;88.72
69402;BME280;56589;51.992;5.924;2023-02-19T01:41:40;101157.31;;;9.03;88.55
69402;BME280;56589;51.992;5.924;2023-02-19T01:47:19;101165.25;;;9.01;88.50
69402;BME280;56589;51.992;5.924;2023-02-19T01:49:47;101155.53;;;9.03;88.23
69402;BME280;56589;51.992;5.924;2023-02-19T01:52:20;101165.91;;;9.05;88.60
69402;BME280;56589;51.992;5.924;2023-02-19T01:54:49;101158.91;;;9.05;88.15
69402;BME280;56589;51.992;5.924;2023-02-19T01:57:19;101168.63;;;9.03;88.02
69402;BME280;56589;51.992;5.924;2023-02-19T01:59:49;101169.56;;;9.02;87.85
69402;BME280;56589;51.992;5.924;2023-02-19T02:02:24;101167.88;;;9.01;88.39
69402;BME280;56589;51.992;5.924;2023-02-19T02:04:51;101174.88;;;9.01;88.19
69402;BME280;56589;51.992;5.924;2023-02-19T02:07:17;101173.09;;;9.01;88.12
69402;BME280;56589;51.992;5.924;2023-02-19T02:09:43;101175.78;;;9.00;88.22
69402;BME280;56589;51.992;5.924;2023-02-19T02:12:09;101175.78;;;9.00;88.04
69402;BME280;56589;51.992;5.924;2023-02-19T02:14:36;101178.41;;;9.00;87.78
69402;BME280;56589;51.992;5.924;2023-02-19T02:17:12;101167.06;;;8.99;88.09
69402;BME280;56589;51.992;5.924;2023-02-19T02:20:05;101175.88;;;8.98;88.26
69402;BME280;56589;51.992;5.924;2023-02-19T02:22:53;101170.63;;;8.98;88.17
69402;BME280;56589;51.992;5.924;2023-02-19T02:25:45;101168.00;;;8.98;88.14
69402;BME280;56589;51.992;5.924;2023-02-19T02:28:36;101162.78;;;8.98;87.94
69402;BME280;56589;51.992;5.924;2023-02-19T02:31:28;101164.63;;;8.96;87.70
69402;BME280;56589;51.992;5.924;2023-02-19T02:34:03;101168.19;;;8.95;87.84
69402;BME280;56589;51.992;5.924;2023-02-19T02:36:37;101172.63;;;8.93;88.15
69402;BME280;56589;51.992;5.924;2023-02-19T02:39:07;101169.94;;;8.94;88.15
69402;BME280;56589;51.992;5.924;2023-02-19T02:41:41;101169.06;;;8.94;88.07
69402;BME280;56589;51.992;5.924;2023-02-19T02:44:07;101169.06;;;8.94;88.03
69402;BME280;56589;51.992;5.924;2023-02-19T02:46:39;101175.25;;;8.93;87.92
69402;BME280;56589;51.992;5.924;2023-02-19T02:49:13;101172.72;;;8.91;87.71
69402;BME280;56589;51.992;5.924;2023-02-19T02:51:48;101175.41;;;8.90;87.52
69402;BME280;56589;51.992;5.924;2023-02-19T02:54:19;101187.72;;;8.88;87.55
69402;BME280;56589;51.992;5.924;2023-02-19T02:56:51;101179.28;;;8.83;88.10
69402;BME280;56589;51.992;5.924;2023-02-19T02:59:21;101187.19;;;8.81;87.80
69402;BME280;56589;51.992;5.924;2023-02-19T03:01:54;101189.88;;;8.80;88.01
69402;BME280;56589;51.992;5.924;2023-02-19T03:04:28;101189.97;;;8.78;88.04
69402;BME280;56589;51.992;5.924;2023-02-19T03:07:03;101189.88;;;8.80;88.21
69402;BME280;56589;51.992;5.924;2023-02-19T03:09:37;101196.06;;;8.79;88.25
69402;BME280;56589;51.992;5.924;2023-02-19T03:12:10;101191.75;;;8.78;87.98
69402;BME280;56589;51.992;5.924;2023-02-19T03:14:42;101197.75;;;8.80;88.26
69402;BME280;56589;51.992;5.924;2023-02-19T03:17:17;101209.16;;;8.79;88.15
69402;BME280;56589;51.992;5.924;2023-02-19T03:19:52;101200.34;;;8.80;87.89
69402;BME280;56589;51.992;5.924;2023-02-19T03:22:22;101200.44;;;8.78;88.25
69402;BME280;56589;51.992;5.924;2023-02-19T03:24:55;101207.47;;;8.78;88.27
69402;BME280;56589;51.992;5.924;2023-02-19T03:27:27;101217.00;;;8.79;87.85
69402;BME280;56589;51.992;5.924;2023-02-19T03:30:02;101213.44;;;8.80;88.07
69402;BME280;56589;51.992;5.924;2023-02-19T03:32:37;101216.91;;;8.80;88.13
69402;BME280;56589;51.992;5.924;2023-02-19T03:35:10;101213.44;;;8.80;88.10
69402;BME280;56589;51.992;5.924;2023-02-19T03:37:43;101215.13;;;8.81;87.78
69402;BME280;56589;51.992;5.924;2023-02-19T03:40:13;101218.59;;;8.81;88.08
69402;BME280;56589;51.992;5.924;2023-02-19T03:42:43;101218.59;;;8.81;87.82
69402;BME280;56589;51.992;5.924;2023-02-19T03:45:36;101219.44;;;8.82;87.77
69402;BME280;56589;51.992;5.924;2023-02-19T03:48:24;101230.63;;;8.85;88.08
69402;BME280;56589;51.992;5.924;2023-02-19T03:51:03;101235.88;;;8.85;88.06
69402;BME280;56589;51.992;5.924;2023-02-19T03:53:44;101228.78;;;8.87;87.72
69402;BME280;56589;51.992;5.924;2023-02-19T03:56:21;101234.81;;;8.89;87.85
69402;BME280;56589;51.992;5.924;2023-02-19T03:58:56;101241.72;;;8.90;87.94
69402;BME280;56589;51.992;5.924;2023-02-19T04:01:31;101247.06;;;8.89;87.41
69402;BME280;56589;51.992;5.924;2023-02-19T04:04:12;101248.81;;;8.88;87.54
69402;BME280;56589;51.992;5.924;2023-02-19T04:06:43;101250.56;;;8.88;87.44
69402;BME280;56589;51.992;5.924;2023-02-19T04:09:15;101241.88;;;8.87;87.80
69402;BME280;56589;51.992;5.924;2023-02-19T04:11:42;101252.28;;;8.89;87.93
69402;BME280;56589;51.992;5.924;2023-02-19T04:14:11;101260.16;;;8.89;87.38
69402;BME280;56589;51.992;5.924;2023-02-19T04:16:45;101259.53;;;8.84;87.55
69402;BME280;56589;51.992;5.924;2023-02-19T04:19:20;101261.34;;;8.82;87.87
69402;BME280;56589;51.992;5.924;2023-02-19T04:21:51;101262.34;;;8.79;87.74
69402;BME280;56589;51.992;5.924;2023-02-19T04:24:21;101263.97;;;8.82;87.65
69402;BME280;56589;51.992;5.924;2023-02-19T04:26:51;101264.88;;;8.81;87.38
69402;BME280;56589;51.992;5.924;2023-02-19T04:29:19;101285.06;;;8.79;87.62
69402;BME280;56589;51.992;5.924;2023-02-19T04:31:45;101273.75;;;8.78;87.47
69402;BME280;56589;51.992;5.924;2023-02-19T04:34:11;101274.69;;;8.77;87.76
69402;BME280;56589;51.992;5.924;2023-02-19T04:36:40;101268.59;;;8.77;87.38
69402;BME280;56589;51.992;5.924;2023-02-19T04:39:06;101274.91;;;8.73;87.37
69402;BME280;56589;51.992;5.924;2023-02-19T04:41:31;101284.66;;;8.69;87.37
69402;BME280;56589;51.992;5.924;2023-02-19T04:43:57;101289.97;;;8.67;87.62
69402;BME280;56589;51.992;5.924;2023-02-19T04:46:23;101295.13;;;8.69;87.71
69402;BME280;56589;51.992;5.924;2023-02-19T04:48:49;101296.91;;;8.68;87.70
69402;BME280;56589;51.992;5.924;2023-02-19T04:51:15;101300.44;;;8.67;87.50
69402;BME280;56589;51.992;5.924;2023-02-19T04:53:43;101304.75;;;8.68;87.51
69402;BME280;56589;51.992;5.924;2023-02-19T04:56:11;101311.84;;;8.66;87.45
69402;BME280;56589;51.992;5.924;2023-02-19T04:58:39;101317.06;;;8.66;87.43
69402;BME280;56589;51.992;5.924;2023-02-19T05:01:05;101324.16;;;8.64;87.76
69402;BME280;56589;51.992;5.924;2023-02-19T05:03:32;101320.69;;;8.64;87.41
69402;BME280;56589;51.992;5.924;2023-02-19T05:06:01;101326.91;;;8.61;87.67
69402;BME280;56589;51.992;5.924;2023-02-19T05:08:27;101337.53;;;8.58;87.94
69402;BME280;56589;51.992;5.924;2023-02-19T05:10:59;101333.19;;;8.57;87.42
69402;BME280;56589;51.992;5.924;2023-02-19T05:13:26;101339.44;;;8.55;87.52
69402;BME280;56589;51.992;5.924;2023-02-19T05:15:56;101343.19;;;8.49;87.65
69402;BME280;56589;51.992;5.924;2023-02-19T05:18:24;101334.66;;;8.46;88.13
69402;BME280;56589;51.992;5.924;2023-02-19T05:20:51;101352.09;;;8.45;87.82
69402;BME280;56589;51.992;5.924;2023-02-19T05:23:18;101341.69;;;8.43;87.96
69402;BME280;56589;51.992;5.924;2023-02-19T05:25:45;101341.69;;;8.43;88.27
69402;BME280;56589;51.992;5.924;2023-02-19T05:28:15;101347.00;;;8.42;88.10
69402;BME280;56589;51.992;5.924;2023-02-19T05:30:42;101347.00;;;8.42;88.11
69402;BME280;56589;51.992;5.924;2023-02-19T05:33:08;101354.00;;;8.41;87.90
69402;BME280;56589;51.992;5.924;2023-02-19T05:35:39;101356.63;;;8.41;88.33
69402;BME280;56589;51.992;5.924;2023-02-19T05:38:05;101356.63;;;8.41;88.08
69402;BME280;56589;51.992;5.924;2023-02-19T05:40:31;101363.63;;;8.41;88.12
69402;BME280;56589;51.992;5.924;2023-02-19T05:42:57;101362.72;;;8.42;88.12
69402;BME280;56589;51.992;5.924;2023-02-19T05:45:25;101362.56;;;8.45;87.97
69402;BME280;56589;51.992;5.924;2023-02-19T05:47:51;101354.69;;;8.45;87.92
69402;BME280;56589;51.992;5.924;2023-02-19T05:50:17;101354.78;;;8.43;88.23
69402;BME280;56589;51.992;5.924;2023-02-19T05:52:43;101363.56;;;8.42;88.31
69402;BME280;56589;51.992;5.924;2023-02-19T05:55:09;101363.75;;;8.38;88.28
69402;BME280;56589;51.992;5.924;2023-02-19T05:57:39;101364.69;;;8.37;88.33
69402;BME280;56589;51.992;5.924;2023-02-19T06:00:06;101365.72;;;8.33;87.99
69402;BME280;56589;51.992;5.924;2023-02-19T06:02:36;101365.72;;;8.33;88.51
69402;BME280;56589;51.992;5.924;2023-02-19T06:05:02;101361.41;;;8.32;88.13
69402;BME280;56589;51.992;5.924;2023-02-19T06:07:29;101372.81;;;8.31;88.44
69402;BME280;56589;51.992;5.924;2023-02-19T06:09:55;101379.81;;;8.30;88.51
69402;BME280;56589;51.992;5.924;2023-02-19T06:12:21;101384.97;;;8.32;88.31
69402;BME280;56589;51.992;5.924;2023-02-19T06:14:47;101389.44;;;8.30;88.54
69402;BME280;56589;51.992;5.924;2023-02-19T06:17:14;101396.44;;;8.29;88.50
69402;BME280;56589;51.992;5.924;2023-02-19T06:19:43;101394.75;;;8.28;88.73
69402;BME280;56589;51.992;5.924;2023-02-19T06:22:12;101395.66;;;8.27;88.72
69402;BME280;56589;51.992;5.924;2023-02-19T06:24:38;101398.31;;;8.26;88.76
69402;BME280;56589;51.992;5.924;2023-02-19T06:27:04;101401.78;;;8.26;88.49
69402;BME280;56589;51.992;5.924;2023-02-19T06:29:30;101409.63;;;8.26;88.84
69402;BME280;56589;51.992;5.924;2023-02-19T06:31:56;101416.59;;;8.27;88.66
69402;BME280;56589;51.992;5.924;2023-02-19T06:34:22;101420.81;;;8.30;88.48
69402;BME280;56589;51.992;5.924;2023-02-19T06:36:51;101438.28;;;8.29;88.36
69402;BME280;56589;51.992;5.924;2023-02-19T06:39:17;101428.75;;;8.28;88.79
69402;BME280;56589;51.992;5.924;2023-02-19T06:41:43;101434.81;;;8.29;88.46
69402;BME280;56589;51.992;5.924;2023-02-19T06:44:09;101440.97;;;8.28;88.70
69402;BME280;56589;51.992;5.924;2023-02-19T06:46:35;101433.97;;;8.28;88.75
69402;BME280;56589;51.992;5.924;2023-02-19T06:49:02;101436.53;;;8.30;88.53
69402;BME280;56589;51.992;5.924;2023-02-19T06:51:29;101443.38;;;8.32;88.29
69402;BME280;56589;51.992;5.924;2023-02-19T06:53:58;101442.59;;;8.30;88.16
69402;BME280;56589;51.992;5.924;2023-02-19T06:56:26;101446.06;;;8.31;88.13
69402;BME280;56589;51.992;5.924;2023-02-19T06:58:54;101445.28;;;8.29;88.43
69402;BME280;56589;51.992;5.924;2023-02-19T07:01:22;101449.59;;;8.30;88.67
69402;BME280;56589;51.992;5.924;2023-02-19T07:03:49;101452.22;;;8.30;88.53
69402;BME280;56589;51.992;5.924;2023-02-19T07:06:15;101460.06;;;8.30;88.18
69402;BME280;56589;51.992;5.924;2023-02-19T07:08:40;101470.59;;;8.28;88.15
69402;BME280;56589;51.992;5.924;2023-02-19T07:11:09;101469.75;;;8.28;88.50
69402;BME280;56589;51.992;5.924;2023-02-19T07:13:35;101476.69;;;8.29;88.29
69402;BME280;56589;51.992;5.924;2023-02-19T07:16:02;101474.91;;;8.29;88.54
69402;BME280;56589;51.992;5.924;2023-02-19T07:18:30;101487.16;;;8.29;88.14
69402;BME280;56589;51.992;5.924;2023-02-19T07:21:01;101488.13;;;8.26;88.14
69402;BME280;56589;51.992;5.924;2023-02-19T07:23:28;101489.97;;;8.24;88.55
69402;BME280;56589;51.992;5.924;2023-02-19T07:25:53;101488.25;;;8.23;88.68
69402;BME280;56589;51.992;5.924;2023-02-19T07:28:22;101509.13;;;8.25;88.46
69402;BME280;56589;51.992;5.924;2023-02-19T07:30:48;101502.13;;;8.25;88.59
69402;BME280;56589;51.992;5.924;2023-02-19T07:33:13;101509.13;;;8.25;88.16
69402;BME280;56589;51.992;5.924;2023-02-19T07:35:44;101521.28;;;8.26;88.63
69402;BME280;56589;51.992;5.924;2023-02-19T07:38:10;101522.97;;;8.27;88.64
69402;BME280;56589;51.992;5.924;2023-02-19T07:40:36;101521.94;;;8.31;88.34
69402;BME280;56589;51.992;5.924;2023-02-19T07:43:02;101531.47;;;8.32;88.33
69402;BME280;56589;51.992;5.924;2023-02-19T07:45:31;101535.78;;;8.33;88.17
69402;BME280;56589;51.992;5.924;2023-02-19T07:47:56;101541.94;;;8.32;88.66
69402;BME280;56589;51.992;5.924;2023-02-19T07:50:24;101547.13;;;8.33;88.66
69402;BME280;56589;51.992;5.924;2023-02-19T07:52:50;101539.34;;;8.32;88.44
69402;BME280;56589;51.992;5.924;2023-02-19T07:55:15;101537.72;;;8.29;88.65
69402;BME280;56589;51.992;5.924;2023-02-19T07:57:41;101544.72;;;8.29;88.67
69402;BME280;56589;51.992;5.924;2023-02-19T08:00:08;101545.47;;;8.31;88.79
69402;BME280;56589;51.992;5.924;2023-02-19T08:02:38;101546.25;;;8.33;88.38
69402;BME280;56589;51.992;5.924;2023-02-19T08:05:05;101541.84;;;8.35;88.24
69402;BME280;56589;51.992;5.924;2023-02-19T08:07:31;101542.75;;;8.34;88.07
69402;BME280;56589;51.992;5.924;2023-02-19T08:09:58;101551.38;;;8.36;88.56
69402;BME280;56589;51.992;5.924;2023-02-19T08:12:24;101546.00;;;8.39;88.39
69402;BME280;56589;51.992;5.924;2023-02-19T08:14:50;101535.28;;;8.45;88.76
69402;BME280;56589;51.992;5.924;2023-02-19T08:17:16;101553.53;;;8.47;88.48
69402;BME280;56589;51.992;5.924;2023-02-19T08:19:44;101564.78;;;8.49;88.16
69402;BME280;56589;51.992;5.924;2023-02-19T08:22:10;101570.75;;;8.52;87.91
69402;BME280;56589;51.992;5.924;2023-02-19T08:24:36;101572.31;;;8.56;88.48
69402;BME280;56589;51.992;5.924;2023-02-19T08:27:02;101571.19;;;8.62;87.97
69402;BME280;56589;51.992;5.924;2023-02-19T08:29:28;101575.38;;;8.66;88.62
69402;BME280;56589;51.992;5.924;2023-02-19T08:31:53;101582.06;;;8.73;88.57
69402;BME280;56589;51.992;5.924;2023-02-19T08:34:22;101574.13;;;8.75;87.98
69402;BME280;56589;51.992;5.924;2023-02-19T08:36:51;101579.25;;;8.78;87.88
69402;BME280;56589;51.992;5.924;2023-02-19T08:39:17;101591.41;;;8.79;88.01
69402;BME280;56589;51.992;5.924;2023-02-19T08:41:42;101590.50;;;8.80;88.00
69402;BME280;56589;51.992;5.924;2023-02-19T08:44:08;101596.47;;;8.83;87.90
69402;BME280;56589;51.992;5.924;2023-02-19T08:46:34;101604.03;;;8.89;87.75
69402;BME280;56589;51.992;5.924;2023-02-19T08:49:00;101600.34;;;8.93;87.52
69402;BME280;56589;51.992;5.924;2023-02-19T08:51:26;101610.72;;;8.96;87.77
69402;BME280;56589;51.992;5.924;2023-02-19T08:53:54;101617.53;;;9.01;87.20
69402;BME280;56589;51.992;5.924;2023-02-19T08:56:20;101623.47;;;9.04;87.38
69402;BME280;56589;51.992;5.924;2023-02-19T08:58:46;101624.97;;;9.10;87.54
69402;BME280;56589;51.992;5.924;2023-02-19T09:01:13;101624.03;;;9.11;86.88
69402;BME280;56589;51.992;5.924;2023-02-19T09:03:41;101613.56;;;9.11;87.28
69402;BME280;56589;51.992;5.924;2023-02-19T09:06:07;101610.84;;;9.12;86.76
69402;BME280;56589;51.992;5.924;2023-02-19T09:08:37;101605.50;;;9.15;87.47
69402;BME280;56589;51.992;5.924;2023-02-19T09:11:06;101620.91;;;9.23;87.43
69402;BME280;56589;51.992;5.924;2023-02-19T09:13:32;101611.22;;;9.25;86.82
69402;BME280;56589;51.992;5.924;2023-02-19T09:15:58;101618.84;;;9.30;87.01
69402;BME280;56589;51.992;5.924;2023-02-19T09:18:24;101616.22;;;9.30;86.52
69402;BME280;56589;51.992;5.924;2023-02-19T09:20:50;101627.78;;;9.26;85.49
69402;BME280;56589;51.992;5.924;2023-02-19T09:23:16;101634.84;;;9.23;86.09
69402;BME280;56589;51.992;5.924;2023-02-19T09:25:42;101641.06;;;9.21;86.23
69402;BME280;56589;51.992;5.924;2023-02-19T09:28:10;101646.38;;;9.19;86.45
69402;BME280;56589;51.992;5.924;2023-02-19T09:30:36;101649.00;;;9.19;86.57
69402;BME280;56589;51.992;5.924;2023-02-19T09:33:03;101653.31;;;9.20;86.12
69402;BME280;56589;51.992;5.924;2023-02-19T09:35:30;101658.56;;;9.20;86.52
69402;BME280;56589;51.992;5.924;2023-02-19T09:37:58;101667.25;;;9.21;86.70
69402;BME280;56589;51.992;5.924;2023-02-19T09:40:24;101660.13;;;9.25;86.24
69402;BME280;56589;51.992;5.924;2023-02-19T09:42:50;101668.91;;;9.23;86.14
69402;BME280;56589;51.992;5.924;2023-02-19T09:45:22;101689.84;;;9.25;86.54
69402;BME280;56589;51.992;5.924;2023-02-19T09:47:52;101701.16;;;9.26;86.42
69402;BME280;56589;51.992;5.924;2023-02-19T09:50:32;101701.25;;;9.22;85.78
69402;BME280;56589;51.992;5.924;2023-02-19T09:53:03;101711.22;;;9.14;85.87
69402;BME280;56589;51.992;5.924;2023-02-19T09:55:38;101706.06;;;9.13;85.95
69402;BME280;56589;51.992;5.924;2023-02-19T09:58:17;101709.38;;;9.16;86.31
69402;BME280;56589;51.992;5.924;2023-02-19T10:00:54;101720.63;;;9.18;85.68
69402;BME280;56589;51.992;5.924;2023-02-19T10:03:24;101720.78;;;9.15;86.04
69402;BME280;56589;51.992;5.924;2023-02-19T10:05:52;101725.34;;;9.10;85.17
69402;BME280;56589;51.992;5.924;2023-02-19T10:08:19;101742.13;;;9.06;85.71
69402;BME280;56589;51.992;5.924;2023-02-19T10:10:46;101740.31;;;9.08;85.80
69402;BME280;56589;51.992;5.924;2023-02-19T10:13:17;101742.84;;;9.10;85.93
69402;BME280;56589;51.992;5.924;2023-02-19T10:15:47;101746.47;;;9.07;85.97
69402;BME280;56589;51.992;5.924;2023-02-19T10:18:19;101754.44;;;9.04;85.76
69402;BME280;56589;51.992;5.924;2023-02-19T10:20:48;101762.72;;;8.93;85.81
69402;BME280;56589;51.992;5.924;2023-02-19T10:23:16;101760.25;;;8.90;85.73
69402;BME280;56589;51.992;5.924;2023-02-19T10:25:46;101760.19;;;8.92;86.18
69402;BME280;56589;51.992;5.924;2023-02-19T10:28:15;101761.09;;;8.91;86.21
69402;BME280;56589;51.992;5.924;2023-02-19T10:30:44;101762.03;;;8.90;86.25
69402;BME280;56589;51.992;5.924;2023-02-19T10:33:18;101767.13;;;8.93;86.02
69402;BME280;56589;51.992;5.924;2023-02-19T10:35:55;101791.44;;;8.96;86.26
69402;BME280;56589;51.992;5.924;2023-02-19T10:38:26;101793.06;;;8.99;86.03
69402;BME280;56589;51.992;5.924;2023-02-19T10:40:59;101788.63;;;9.01;86.00
69402;BME280;56589;51.992;5.924;2023-02-19T10:43:30;101785.94;;;9.03;86.12
69402;BME280;56589;51.992;5.924;2023-02-19T10:46:02;101788.63;;;9.01;85.91
69402;BME280;56589;51.992;5.924;2023-02-19T10:48:35;101795.75;;;8.98;85.62
69402;BME280;56589;51.992;5.924;2023-02-19T10:51:07;101799.22;;;8.98;86.09
69402;BME280;56589;51.992;5.924;2023-02-19T10:53:40;101792.34;;;8.95;86.03
69402;BME280;56589;51.992;5.924;2023-02-19T10:56:09;101802.03;;;8.93;85.99
69402;BME280;56589;51.992;5.924;2023-02-19T10:58:38;101797.25;;;8.83;85.66
69402;BME280;56589;51.992;5.924;2023-02-19T11:01:10;101804.44;;;8.78;85.95
69402;BME280;56589;51.992;5.924;2023-02-19T11:03:41;101803.69;;;8.74;85.60
69402;BME280;56589;51.992;5.924;2023-02-19T11:06:09;101794.44;;;8.65;85.58
69402;BME280;56589;51.992;5.924;2023-02-19T11:08:49;101785.91;;;8.60;85.68
69402;BME280;56589;51.992;5.924;2023-02-19T11:11:26;101781.59;;;8.59;86.18
69402;BME280;56589;51.992;5.924;2023-02-19T11:13:56;101775.44;;;8.60;86.17
69402;BME280;56589;51.992;5.924;2023-02-19T11:16:36;101785.00;;;8.61;86.01
69402;BME280;56589;51.992;5.924;2023-02-19T11:19:21;101779.09;;;8.56;86.16
69402;BME280;56589;51.992;5.924;2023-02-19T11:21:49;101786.03;;;8.57;86.46
69402;BME280;56589;51.992;5.924;2023-02-19T11:24:22;101792.91;;;8.60;86.29
69402;BME280;56589;51.992;5.924;2023-02-19T11:26:55;101784.22;;;8.59;86.49
69402;BME280;56589;51.992;5.924;2023-02-19T11:29:23;101788.47;;;8.62;86.20
69402;BME280;56589;51.992;5.924;2023-02-19T11:31:50;101789.22;;;8.65;86.86
69402;BME280;56589;51.992;5.924;2023-02-19T11:34:30;101795.03;;;8.72;86.81
69402;BME280;56589;51.992;5.924;2023-02-19T11:37:10;101789.44;;;8.81;87.02
69402;BME280;56589;51.992;5.924;2023-02-19T11:39:39;101790.03;;;8.88;86.68
69402;BME280;56589;51.992;5.924;2023-02-19T11:45:21;101805.56;;;8.92;85.78
69402;BME280;56589;51.992;5.924;2023-02-19T11:48:10;101815.25;;;8.90;85.90
69402;BME280;56589;51.992;5.924;2023-02-19T11:51:04;101813.41;;;8.92;85.94
69402;BME280;56589;51.992;5.924;2023-02-19T11:53:45;101814.88;;;9.00;86.29
69402;BME280;56589;51.992;5.924;2023-02-19T11:56:15;101807.69;;;9.05;86.01
69402;BME280;56589;51.992;5.924;2023-02-19T11:58:53;101803.78;;;9.15;86.65
69402;BME280;56589;51.992;5.924;2023-02-19T12:01:30;101802.50;;;9.25;86.60
69402;BME280;56589;51.992;5.924;2023-02-19T12:07:47;101802.56;;;9.44;85.83
69402;BME280;56589;51.992;5.924;2023-02-19T12:10:41;101803.28;;;9.47;85.07
69402;BME280;56589;51.992;5.924;2023-02-19T12:13:22;101817.81;;;9.55;85.50
69402;BME280;56589;51.992;5.924;2023-02-19T12:16:07;101807.03;;;9.62;84.77
69402;BME280;56589;51.992;5.924;2023-02-19T12:18:57;101813.69;;;9.69;84.65
69402;BME280;56589;51.992;5.924;2023-02-19T12:28:44;101810.81;;;9.55;84.00
69402;BME280;56589;51.992;5.924;2023-02-19T12:31:51;101812.56;;;9.55;84.54
69402;BME280;56589;51.992;5.924;2023-02-19T12:34:47;101804.00;;;9.51;83.60
69402;BME280;56589;51.992;5.924;2023-02-19T12:37:39;101817.31;;;9.46;84.01
69402;BME280;56589;51.992;5.924;2023-02-19T12:40:28;101816.22;;;9.32;83.31
69402;BME280;56589;51.992;5.924;2023-02-19T12:43:09;101804.44;;;9.20;83.84
69402;BME280;56589;51.992;5.924;2023-02-19T12:45:42;101809.72;;;9.18;83.91
69402;BME280;56589;51.992;5.924;2023-02-19T12:48:17;101817.78;;;9.14;83.66
69402;BME280;56589;51.992;5.924;2023-02-19T12:50:55;101828.28;;;9.14;83.88
69402;BME280;56589;51.992;5.924;2023-02-19T12:53:36;101828.19;;;9.15;83.84
69402;BME280;56589;51.992;5.924;2023-02-19T12:56:13;101823.88;;;9.14;83.80
69402;BME280;56589;51.992;5.924;2023-02-19T12:58:47;101820.69;;;9.06;83.43
69402;BME280;56589;51.992;5.924;2023-02-19T13:01:21;101834.97;;;8.99;83.82
69402;BME280;56589;51.992;5.924;2023-02-19T13:04:04;101824.88;;;8.90;83.36
69402;BME280;56589;51.992;5.924;2023-02-19T13:06:44;101827.06;;;8.79;83.64
69402;BME280;56589;51.992;5.924;2023-02-19T13:09:20;101831.78;;;8.71;83.74
69402;BME280;56589;51.992;5.924;2023-02-19T13:11:57;101845.09;;;8.64;84.15
69402;BME280;56589;51.992;5.924;2023-02-19T13:14:30;101848.81;;;8.59;83.62
69402;BME280;56589;51.992;5.924;2023-02-19T13:17:03;101848.91;;;8.56;84.14
69402;BME280;56589;51.992;5.924;2023-02-19T13:19:39;101863.91;;;8.52;84.00
69402;BME280;56589;51.992;5.924;2023-02-19T13:22:17;101872.09;;;8.43;83.96
69402;BME280;56589;51.992;5.924;2023-02-19T13:24:48;101871.53;;;8.35;84.12
69402;BME280;56589;51.992;5.924;2023-02-19T13:27:30;101877.09;;;8.26;84.49
69402;BME280;56589;51.992;5.924;2023-02-19T13:30:25;101879.13;;;8.18;85.01
69402;BME280;56589;51.992;5.924;2023-02-19T13:33:12;101878.34;;;8.15;85.30
69402;BME280;56589;51.992;5.924;2023-02-19T13:36:05;101887.97;;;8.15;85.31
69402;BME280;56589;51.992;5.924;2023-02-19T13:38:38;101888.81;;;8.15;85.29
69402;BME280;56589;51.992;5.924;2023-02-19T13:41:16;101896.53;;;8.19;85.11
69402;BME280;56589;51.992;5.924;2023-02-19T13:43:53;101898.44;;;8.15;85.39
69402;BME280;56589;51.992;5.924;2023-02-19T13:46:21;101901.25;;;8.09;85.19
69402;BME280;56589;51.992;5.924;2023-02-19T13:52:32;101886.94;;;7.94;85.21
69402;BME280;56589;51.992;5.924;2023-02-19T14:04:47;101899.50;;;7.84;86.46
69402;BME280;56589;51.992;5.924;2023-02-19T14:16:50;101918.84;;;7.54;86.08
69402;BME280;56589;51.992;5.924;2023-02-19T14:19:51;101920.91;;;7.44;85.73
69402;BME280;56589;51.992;5.924;2023-02-19T14:25:41;101938.59;;;7.34;85.70
69402;BME280;56589;51.992;5.924;2023-02-19T14:28:36;101932.03;;;7.23;86.22
69402;BME280;56589;51.992;5.924;2023-02-19T14:31:20;101931.41;;;7.15;85.79
69402;BME280;56589;51.992;5.924;2023-02-19T14:33:52;101933.34;;;7.08;86.21
69402;BME280;56589;51.992;5.924;2023-02-19T14:36:31;101928.38;;;7.00;86.23
69402;BME280;56589;51.992;5.924;2023-02-19T14:39:04;101917.97;;;6.99;86.66
69402;BME280;56589;51.992;5.924;2023-02-19T14:41:38;101914.59;;;6.95;86.85
69402;BME280;56589;51.992;5.924;2023-02-19T14:44:13;101903.25;;;6.96;86.43
69402;BME280;56589;51.992;5.924;2023-02-19T14:46:47;101911.84;;;7.00;86.60
69402;BME280;56589;51.992;5.924;2023-02-19T14:49:21;101899.72;;;6.97;86.31
69402;BME280;56589;51.992;5.924;2023-02-19T14:51:57;101894.56;;;6.96;86.43
69402;BME280;56589;51.992;5.924;2023-02-19T14:54:36;101891.94;;;6.96;86.85
69402;BME280;56589;51.992;5.924;2023-02-19T14:57:12;101891.03;;;6.97;86.64
69402;BME280;56589;51.992;5.924;2023-02-19T14:59:51;101884.78;;;7.02;86.82
69402;BME280;56589;51.992;5.924;2023-02-19T15:02:19;101874.28;;;7.04;86.62
69402;BME280;56589;51.992;5.924;2023-02-19T15:04:45;101870.78;;;7.05;86.76
69402;BME280;56589;51.992;5.924;2023-02-19T15:07:18;101871.53;;;7.08;86.58
69402;BME280;56589;51.992;5.924;2023-02-19T15:09:49;101860.16;;;7.09;86.61
69402;BME280;56589;51.992;5.924;2023-02-19T15:12:20;101868.91;;;7.08;86.54